sensor_id;sensor_type;location;lat;lon;timestamp;temperature;humidity
84272;SHT31;74614;50.032;19.566;2023-12-07T00:01:19;11.21;33.21
84272;SHT31;74614;50.032;19.566;2023-12-07T00:03:23;11.14;33.40
84272;SHT31;74614;50.032;19.566;2023-12-07T00:05:21;11.11;33.66
84272;SHT31;74614;50.032;19.566;2023-12-07T00:07:21;11.11;33.45
84272;SHT31;74614;50.032;19.566;2023-12-07T00:09:24;11.18;33.75
84272;SHT31;74614;50.032;19.566;2023-12-07T00:11:23;11.21;33.29
84272;SHT31;74614;50.032;19.566;2023-12-07T00:13:25;11.13;33.64
84272;SHT31;74614;50.032;19.566;2023-12-07T00:15:23;11.13;33.17
84272;SHT31;74614;50.032;19.566;2023-12-07T00:17:23;11.14;33.22
84272;SHT31;74614;50.032;19.566;2023-12-07T00:19:21;11.14;33.31
84272;SHT31;74614;50.032;19.566;2023-12-07T00:21:22;10.99;33.34
84272;SHT31;74614;50.032;19.566;2023-12-07T00:23:23;11.01;33.49
84272;SHT31;74614;50.032;19.566;2023-12-07T00:25:23;11.05;33.59
84272;SHT31;74614;50.032;19.566;2023-12-07T00:27:25;11.24;33.38
84272;SHT31;74614;50.032;19.566;2023-12-07T00:29:25;11.29;33.08
84272;SHT31;74614;50.032;19.566;2023-12-07T00:31:25;11.44;32.90
84272;SHT31;74614;50.032;19.566;2023-12-07T00:33:24;11.39;33.17
84272;SHT31;74614;50.032;19.566;2023-12-07T00:35:25;11.52;33.45
84272;SHT31;74614;50.032;19.566;2023-12-07T00:37:23;11.54;32.70
84272;SHT31;74614;50.032;19.566;2023-12-07T00:39:22;11.63;32.70
84272;SHT31;74614;50.032;19.566;2023-12-07T00:41:21;11.72;32.55
84272;SHT31;74614;50.032;19.566;2023-12-07T00:43:27;11.75;32.55
84272;SHT31;74614;50.032;19.566;2023-12-07T00:45:22;11.58;32.94
84272;SHT31;74614;50.032;19.566;2023-12-07T00:47:23;11.65;32.98
84272;SHT31;74614;50.032;19.566;2023-12-07T00:49:22;11.88;32.74
84272;SHT31;74614;50.032;19.566;2023-12-07T00:51:22;12.00;32.44
84272;SHT31;74614;50.032;19.566;2023-12-07T00:53:21;12.10;32.05
84272;SHT31;74614;50.032;19.566;2023-12-07T00:55:22;12.17;31.76
84272;SHT31;74614;50.032;19.566;2023-12-07T00:57:22;12.24;31.85
84272;SHT31;74614;50.032;19.566;2023-12-07T00:59:23;12.27;31.89
84272;SHT31;74614;50.032;19.566;2023-12-07T01:01:24;12.20;31.77
84272;SHT31;74614;50.032;19.566;2023-12-07T01:03:23;12.51;31.56
84272;SHT31;74614;50.032;19.566;2023-12-07T01:05:23;12.68;31.39
84272;SHT31;74614;50.032;19.566;2023-12-07T01:07:23;12.78;30.94
84272;SHT31;74614;50.032;19.566;2023-12-07T01:09:24;12.81;30.81
84272;SHT31;74614;50.032;19.566;2023-12-07T01:11:21;12.94;30.85
84272;SHT31;74614;50.032;19.566;2023-12-07T01:13:21;13.02;30.77
84272;SHT31;74614;50.032;19.566;2023-12-07T01:15:22;12.99;30.38
84272;SHT31;74614;50.032;19.566;2023-12-07T01:17:23;12.88;30.39
84272;SHT31;74614;50.032;19.566;2023-12-07T01:19:23;12.77;30.53
84272;SHT31;74614;50.032;19.566;2023-12-07T01:21:24;12.60;30.90
84272;SHT31;74614;50.032;19.566;2023-12-07T01:23:24;12.37;31.09
84272;SHT31;74614;50.032;19.566;2023-12-07T01:25:24;12.23;31.38
84272;SHT31;74614;50.032;19.566;2023-12-07T01:27:22;12.10;32.39
84272;SHT31;74614;50.032;19.566;2023-12-07T01:29:22;12.19;31.97
84272;SHT31;74614;50.032;19.566;2023-12-07T01:31:27;12.12;31.73
84272;SHT31;74614;50.032;19.566;2023-12-07T01:33:24;12.16;31.78
84272;SHT31;74614;50.032;19.566;2023-12-07T01:35:23;12.19;31.62
84272;SHT31;74614;50.032;19.566;2023-12-07T01:37:26;12.12;31.82
84272;SHT31;74614;50.032;19.566;2023-12-07T01:39:24;12.13;31.98
84272;SHT31;74614;50.032;19.566;2023-12-07T01:41:21;12.14;32.08
84272;SHT31;74614;50.032;19.566;2023-12-07T01:43:23;12.16;31.78
84272;SHT31;74614;50.032;19.566;2023-12-07T01:45:22;12.19;31.59
84272;SHT31;74614;50.032;19.566;2023-12-07T01:47:22;12.13;31.42
84272;SHT31;74614;50.032;19.566;2023-12-07T01:49:23;12.12;31.89
84272;SHT31;74614;50.032;19.566;2023-12-07T01:51:22;12.10;31.92
84272;SHT31;74614;50.032;19.566;2023-12-07T01:53:23;12.02;32.03
84272;SHT31;74614;50.032;19.566;2023-12-07T01:55:23;12.00;31.80
84272;SHT31;74614;50.032;19.566;2023-12-07T01:57:25;12.10;31.89
84272;SHT31;74614;50.032;19.566;2023-12-07T01:59:23;12.16;31.74
84272;SHT31;74614;50.032;19.566;2023-12-07T02:01:24;12.19;31.83
84272;SHT31;74614;50.032;19.566;2023-12-07T02:03:23;12.27;31.62
84272;SHT31;74614;50.032;19.566;2023-12-07T02:05:24;12.14;31.80
84272;SHT31;74614;50.032;19.566;2023-12-07T02:07:23;12.10;31.73
84272;SHT31;74614;50.032;19.566;2023-12-07T02:09:22;12.13;32.02
84272;SHT31;74614;50.032;19.566;2023-12-07T02:11:21;12.20;31.64
84272;SHT31;74614;50.032;19.566;2023-12-07T02:13:24;12.14;31.74
84272;SHT31;74614;50.032;19.566;2023-12-07T02:15:23;12.12;32.14
84272;SHT31;74614;50.032;19.566;2023-12-07T02:17:34;12.00;32.11
84272;SHT31;74614;50.032;19.566;2023-12-07T02:19:50;11.93;32.08
84272;SHT31;74614;50.032;19.566;2023-12-07T02:22:27;11.85;32.50
84272;SHT31;74614;50.032;19.566;2023-12-07T02:24:22;11.89;32.46
84272;SHT31;74614;50.032;19.566;2023-12-07T02:26:21;12.00;32.45
84272;SHT31;74614;50.032;19.566;2023-12-07T02:28:22;11.96;32.33
84272;SHT31;74614;50.032;19.566;2023-12-07T02:30:20;12.20;31.72
84272;SHT31;74614;50.032;19.566;2023-12-07T02:32:22;12.40;31.75
84272;SHT31;74614;50.032;19.566;2023-12-07T02:34:20;12.36;31.74
84272;SHT31;74614;50.032;19.566;2023-12-07T02:36:30;12.43;31.80
84272;SHT31;74614;50.032;19.566;2023-12-07T02:39:24;12.54;31.56
84272;SHT31;74614;50.032;19.566;2023-12-07T02:41:26;12.61;31.15
84272;SHT31;74614;50.032;19.566;2023-12-07T02:43:24;12.74;30.98
84272;SHT31;74614;50.032;19.566;2023-12-07T02:45:21;12.95;30.98
84272;SHT31;74614;50.032;19.566;2023-12-07T02:47:24;13.11;30.58
84272;SHT31;74614;50.032;19.566;2023-12-07T02:49:22;13.23;30.43
84272;SHT31;74614;50.032;19.566;2023-12-07T02:51:23;13.30;30.25
84272;SHT31;74614;50.032;19.566;2023-12-07T02:53:26;13.38;29.92
84272;SHT31;74614;50.032;19.566;2023-12-07T02:55:22;13.53;29.62
84272;SHT31;74614;50.032;19.566;2023-12-07T02:57:22;13.64;29.42
84272;SHT31;74614;50.032;19.566;2023-12-07T02:59:22;13.64;29.34
84272;SHT31;74614;50.032;19.566;2023-12-07T03:01:23;13.60;29.20
84272;SHT31;74614;50.032;19.566;2023-12-07T03:03:23;13.63;29.35
84272;SHT31;74614;50.032;19.566;2023-12-07T03:05:24;13.73;29.32
84272;SHT31;74614;50.032;19.566;2023-12-07T03:07:24;13.71;29.18
84272;SHT31;74614;50.032;19.566;2023-12-07T03:09:24;13.69;29.27
84272;SHT31;74614;50.032;19.566;2023-12-07T03:11:22;13.46;29.38
84272;SHT31;74614;50.032;19.566;2023-12-07T03:13:22;13.18;30.06
84272;SHT31;74614;50.032;19.566;2023-12-07T03:15:22;12.84;30.48
84272;SHT31;74614;50.032;19.566;2023-12-07T03:17:24;12.61;31.19
84272;SHT31;74614;50.032;19.566;2023-12-07T03:19:23;12.36;31.41
84272;SHT31;74614;50.032;19.566;2023-12-07T03:21:26;12.36;31.58
84272;SHT31;74614;50.032;19.566;2023-12-07T03:23:22;12.12;31.91
84272;SHT31;74614;50.032;19.566;2023-12-07T03:25:25;11.90;32.20
84272;SHT31;74614;50.032;19.566;2023-12-07T03:27:23;11.79;32.48
84272;SHT31;74614;50.032;19.566;2023-12-07T03:29:22;11.65;32.75
84272;SHT31;74614;50.032;19.566;2023-12-07T03:31:23;11.59;32.81
84272;SHT31;74614;50.032;19.566;2023-12-07T03:33:21;11.54;32.90
84272;SHT31;74614;50.032;19.566;2023-12-07T03:35:22;11.58;32.85
84272;SHT31;74614;50.032;19.566;2023-12-07T03:37:22;11.51;33.02
84272;SHT31;74614;50.032;19.566;2023-12-07T03:39:27;11.50;33.19
84272;SHT31;74614;50.032;19.566;2023-12-07T03:41:23;11.51;33.34
84272;SHT31;74614;50.032;19.566;2023-12-07T03:43:25;11.45;33.22
84272;SHT31;74614;50.032;19.566;2023-12-07T03:45:22;11.50;33.37
84272;SHT31;74614;50.032;19.566;2023-12-07T03:47:22;11.58;33.19
84272;SHT31;74614;50.032;19.566;2023-12-07T03:49:24;11.65;33.13
84272;SHT31;74614;50.032;19.566;2023-12-07T03:51:22;11.65;32.80
84272;SHT31;74614;50.032;19.566;2023-12-07T03:53:22;11.58;33.10
84272;SHT31;74614;50.032;19.566;2023-12-07T03:55:21;11.39;33.05
84272;SHT31;74614;50.032;19.566;2023-12-07T03:57:22;11.35;33.29
84272;SHT31;74614;50.032;19.566;2023-12-07T03:59:25;11.37;33.47
84272;SHT31;74614;50.032;19.566;2023-12-07T04:01:25;11.24;33.36
84272;SHT31;74614;50.032;19.566;2023-12-07T04:03:23;11.18;33.75
84272;SHT31;74614;50.032;19.566;2023-12-07T04:05:22;10.96;33.81
84272;SHT31;74614;50.032;19.566;2023-12-07T04:07:23;10.99;33.98
84272;SHT31;74614;50.032;19.566;2023-12-07T04:09:24;10.86;34.21
84272;SHT31;74614;50.032;19.566;2023-12-07T04:11:25;10.86;34.33
84272;SHT31;74614;50.032;19.566;2023-12-07T04:13:22;10.74;34.26
84272;SHT31;74614;50.032;19.566;2023-12-07T04:15:22;10.63;34.69
84272;SHT31;74614;50.032;19.566;2023-12-07T04:17:24;10.66;34.55
84272;SHT31;74614;50.032;19.566;2023-12-07T04:19:25;10.66;34.75
84272;SHT31;74614;50.032;19.566;2023-12-07T04:21:23;10.56;34.82
84272;SHT31;74614;50.032;19.566;2023-12-07T04:23:22;10.54;34.80
84272;SHT31;74614;50.032;19.566;2023-12-07T04:25:23;10.48;34.84
84272;SHT31;74614;50.032;19.566;2023-12-07T04:27:23;10.52;35.11
84272;SHT31;74614;50.032;19.566;2023-12-07T04:29:22;10.57;34.87
84272;SHT31;74614;50.032;19.566;2023-12-07T04:31:24;10.53;34.92
84272;SHT31;74614;50.032;19.566;2023-12-07T04:33:23;10.57;34.82
84272;SHT31;74614;50.032;19.566;2023-12-07T04:35:24;10.56;34.81
84272;SHT31;74614;50.032;19.566;2023-12-07T04:37:22;10.56;34.90
84272;SHT31;74614;50.032;19.566;2023-12-07T04:39:21;10.66;34.84
84272;SHT31;74614;50.032;19.566;2023-12-07T04:41:23;10.63;34.88
84272;SHT31;74614;50.032;19.566;2023-12-07T04:43:20;10.67;34.95
84272;SHT31;74614;50.032;19.566;2023-12-07T04:45:22;10.79;34.58
84272;SHT31;74614;50.032;19.566;2023-12-07T04:47:26;10.80;34.64
84272;SHT31;74614;50.032;19.566;2023-12-07T04:49:26;10.72;34.81
84272;SHT31;74614;50.032;19.566;2023-12-07T04:51:27;10.69;34.62
84272;SHT31;74614;50.032;19.566;2023-12-07T04:53:21;10.79;34.66
84272;SHT31;74614;50.032;19.566;2023-12-07T04:55:21;10.79;34.46
84272;SHT31;74614;50.032;19.566;2023-12-07T04:57:35;10.74;34.65
84272;SHT31;74614;50.032;19.566;2023-12-07T05:00:24;10.69;34.67
84272;SHT31;74614;50.032;19.566;2023-12-07T05:02:24;10.67;34.75
84272;SHT31;74614;50.032;19.566;2023-12-07T05:04:22;10.67;34.88
84272;SHT31;74614;50.032;19.566;2023-12-07T05:06:22;10.70;34.96
84272;SHT31;74614;50.032;19.566;2023-12-07T05:08:28;10.60;34.86
84272;SHT31;74614;50.032;19.566;2023-12-07T05:10:27;10.77;34.79
84272;SHT31;74614;50.032;19.566;2023-12-07T05:12:24;10.69;35.03
84272;SHT31;74614;50.032;19.566;2023-12-07T05:14:24;10.67;34.77
84272;SHT31;74614;50.032;19.566;2023-12-07T05:16:25;10.64;34.91
84272;SHT31;74614;50.032;19.566;2023-12-07T05:18:23;10.60;35.02
84272;SHT31;74614;50.032;19.566;2023-12-07T05:20:28;10.49;35.10
84272;SHT31;74614;50.032;19.566;2023-12-07T05:22:25;10.54;35.01
84272;SHT31;74614;50.032;19.566;2023-12-07T05:24:23;10.63;35.01
84272;SHT31;74614;50.032;19.566;2023-12-07T05:26:24;10.54;35.23
84272;SHT31;74614;50.032;19.566;2023-12-07T05:28:25;10.52;35.09
84272;SHT31;74614;50.032;19.566;2023-12-07T05:30:24;10.53;35.21
84272;SHT31;74614;50.032;19.566;2023-12-07T05:32:24;10.54;35.18
84272;SHT31;74614;50.032;19.566;2023-12-07T05:34:22;10.69;35.11
84272;SHT31;74614;50.032;19.566;2023-12-07T05:36:31;10.62;34.99
84272;SHT31;74614;50.032;19.566;2023-12-07T05:38:23;10.69;35.03
84272;SHT31;74614;50.032;19.566;2023-12-07T05:40:26;10.73;34.76
84272;SHT31;74614;50.032;19.566;2023-12-07T05:42:22;10.83;34.68
84272;SHT31;74614;50.032;19.566;2023-12-07T05:44:25;10.81;34.86
84272;SHT31;74614;50.032;19.566;2023-12-07T05:46:23;10.76;34.66
84272;SHT31;74614;50.032;19.566;2023-12-07T05:48:22;10.73;34.73
84272;SHT31;74614;50.032;19.566;2023-12-07T05:50:30;10.80;34.84
84272;SHT31;74614;50.032;19.566;2023-12-07T05:52:23;10.72;35.08
84272;SHT31;74614;50.032;19.566;2023-12-07T05:54:25;10.57;35.08
84272;SHT31;74614;50.032;19.566;2023-12-07T05:56:23;10.69;35.11
84272;SHT31;74614;50.032;19.566;2023-12-07T05:58:22;10.70;35.06
84272;SHT31;74614;50.032;19.566;2023-12-07T06:00:25;10.89;34.77
84272;SHT31;74614;50.032;19.566;2023-12-07T06:02:23;10.93;34.67
84272;SHT31;74614;50.032;19.566;2023-12-07T06:04:24;10.80;34.66
84272;SHT31;74614;50.032;19.566;2023-12-07T06:06:24;10.89;34.87
84272;SHT31;74614;50.032;19.566;2023-12-07T06:08:23;10.77;34.79
84272;SHT31;74614;50.032;19.566;2023-12-07T06:10:21;10.66;35.11
84272;SHT31;74614;50.032;19.566;2023-12-07T06:12:26;10.67;35.24
84272;SHT31;74614;50.032;19.566;2023-12-07T06:14:23;10.63;35.31
84272;SHT31;74614;50.032;19.566;2023-12-07T06:16:23;10.53;35.27
84272;SHT31;74614;50.032;19.566;2023-12-07T06:18:23;10.49;35.49
84272;SHT31;74614;50.032;19.566;2023-12-07T06:20:46;10.46;35.92
84272;SHT31;74614;50.032;19.566;2023-12-07T06:23:22;10.53;35.75
84272;SHT31;74614;50.032;19.566;2023-12-07T06:25:21;10.54;35.67
84272;SHT31;74614;50.032;19.566;2023-12-07T06:27:22;10.67;35.48
84272;SHT31;74614;50.032;19.566;2023-12-07T06:29:22;10.63;35.41
84272;SHT31;74614;50.032;19.566;2023-12-07T06:31:26;10.69;35.29
84272;SHT31;74614;50.032;19.566;2023-12-07T06:33:22;10.64;35.29
84272;SHT31;74614;50.032;19.566;2023-12-07T06:35:22;10.70;35.33
84272;SHT31;74614;50.032;19.566;2023-12-07T06:37:23;10.62;35.45
84272;SHT31;74614;50.032;19.566;2023-12-07T06:39:22;10.69;35.35
84272;SHT31;74614;50.032;19.566;2023-12-07T06:41:23;10.62;35.41
84272;SHT31;74614;50.032;19.566;2023-12-07T06:43:23;10.59;35.51
84272;SHT31;74614;50.032;19.566;2023-12-07T06:45:22;10.70;35.48
84272;SHT31;74614;50.032;19.566;2023-12-07T06:47:22;10.69;35.54
84272;SHT31;74614;50.032;19.566;2023-12-07T06:49:23;10.66;35.44
84272;SHT31;74614;50.032;19.566;2023-12-07T06:51:22;10.67;35.42
84272;SHT31;74614;50.032;19.566;2023-12-07T06:53:23;10.67;36.39
84272;SHT31;74614;50.032;19.566;2023-12-07T06:55:22;10.73;36.57
84272;SHT31;74614;50.032;19.566;2023-12-07T06:57:23;10.83;36.48
84272;SHT31;74614;50.032;19.566;2023-12-07T06:59:23;10.90;35.88
84272;SHT31;74614;50.032;19.566;2023-12-07T07:01:24;10.97;35.12
84272;SHT31;74614;50.032;19.566;2023-12-07T07:03:22;10.94;35.23
84272;SHT31;74614;50.032;19.566;2023-12-07T07:05:23;10.87;35.13
84272;SHT31;74614;50.032;19.566;2023-12-07T07:07:22;10.79;35.91
84272;SHT31;74614;50.032;19.566;2023-12-07T07:09:23;10.90;36.31
84272;SHT31;74614;50.032;19.566;2023-12-07T07:11:22;10.96;36.48
84272;SHT31;74614;50.032;19.566;2023-12-07T07:13:26;11.05;35.34
84272;SHT31;74614;50.032;19.566;2023-12-07T07:15:33;11.00;35.20
84272;SHT31;74614;50.032;19.566;2023-12-07T07:17:34;10.99;35.12
84272;SHT31;74614;50.032;19.566;2023-12-07T07:20:24;11.10;35.14
84272;SHT31;74614;50.032;19.566;2023-12-07T07:22:23;11.05;35.15
84272;SHT31;74614;50.032;19.566;2023-12-07T07:24:22;11.03;35.14
84272;SHT31;74614;50.032;19.566;2023-12-07T07:26:23;11.00;35.40
84272;SHT31;74614;50.032;19.566;2023-12-07T07:28:25;10.96;35.30
84272;SHT31;74614;50.032;19.566;2023-12-07T07:30:22;10.96;35.63
84272;SHT31;74614;50.032;19.566;2023-12-07T07:32:25;10.80;35.51
84272;SHT31;74614;50.032;19.566;2023-12-07T07:34:23;10.86;35.73
84272;SHT31;74614;50.032;19.566;2023-12-07T07:36:24;10.81;35.73
84272;SHT31;74614;50.032;19.566;2023-12-07T07:38:21;10.84;35.78
84272;SHT31;74614;50.032;19.566;2023-12-07T07:40:24;10.77;35.75
84272;SHT31;74614;50.032;19.566;2023-12-07T07:42:22;10.83;35.76
84272;SHT31;74614;50.032;19.566;2023-12-07T07:44:28;10.72;35.90
84272;SHT31;74614;50.032;19.566;2023-12-07T07:46:25;10.86;35.80
84272;SHT31;74614;50.032;19.566;2023-12-07T07:48:23;10.81;35.78
84272;SHT31;74614;50.032;19.566;2023-12-07T07:50:23;10.91;35.99
84272;SHT31;74614;50.032;19.566;2023-12-07T07:52:23;10.84;35.86
84272;SHT31;74614;50.032;19.566;2023-12-07T07:54:21;10.80;36.46
84272;SHT31;74614;50.032;19.566;2023-12-07T07:56:24;10.87;36.04
84272;SHT31;74614;50.032;19.566;2023-12-07T07:58:23;10.89;36.04
84272;SHT31;74614;50.032;19.566;2023-12-07T08:00:24;10.84;36.04
84272;SHT31;74614;50.032;19.566;2023-12-07T08:02:21;10.89;35.97
84272;SHT31;74614;50.032;19.566;2023-12-07T08:04:28;10.94;36.02
84272;SHT31;74614;50.032;19.566;2023-12-07T08:06:24;10.84;36.10
84272;SHT31;74614;50.032;19.566;2023-12-07T08:08:24;10.99;36.20
84272;SHT31;74614;50.032;19.566;2023-12-07T08:10:24;10.94;36.34
84272;SHT31;74614;50.032;19.566;2023-12-07T08:12:25;10.74;36.40
84272;SHT31;74614;50.032;19.566;2023-12-07T08:14:26;10.83;36.30
84272;SHT31;74614;50.032;19.566;2023-12-07T08:16:23;10.84;36.64
84272;SHT31;74614;50.032;19.566;2023-12-07T08:18:24;10.90;36.54
84272;SHT31;74614;50.032;19.566;2023-12-07T08:20:32;10.86;36.37
84272;SHT31;74614;50.032;19.566;2023-12-07T08:22:23;10.94;36.17
84272;SHT31;74614;50.032;19.566;2023-12-07T08:24:24;11.01;36.38
84272;SHT31;74614;50.032;19.566;2023-12-07T08:26:23;11.08;36.10
84272;SHT31;74614;50.032;19.566;2023-12-07T08:28:25;11.01;36.19
84272;SHT31;74614;50.032;19.566;2023-12-07T08:30:24;11.15;36.09
84272;SHT31;74614;50.032;19.566;2023-12-07T08:32:28;11.10;36.19
84272;SHT31;74614;50.032;19.566;2023-12-07T08:34:22;10.97;36.29
84272;SHT31;74614;50.032;19.566;2023-12-07T08:36:23;10.99;36.56
84272;SHT31;74614;50.032;19.566;2023-12-07T08:38:24;10.86;36.45
84272;SHT31;74614;50.032;19.566;2023-12-07T08:40:25;10.87;36.63
84272;SHT31;74614;50.032;19.566;2023-12-07T08:42:23;10.90;36.62
84272;SHT31;74614;50.032;19.566;2023-12-07T08:44:24;10.87;36.58
84272;SHT31;74614;50.032;19.566;2023-12-07T08:46:22;10.84;36.59
84272;SHT31;74614;50.032;19.566;2023-12-07T08:48:23;10.79;36.98
84272;SHT31;74614;50.032;19.566;2023-12-07T08:50:23;10.87;37.29
84272;SHT31;74614;50.032;19.566;2023-12-07T08:52:26;10.91;36.78
84272;SHT31;74614;50.032;19.566;2023-12-07T08:54:25;10.97;36.79
84272;SHT31;74614;50.032;19.566;2023-12-07T08:56:28;11.20;36.70
84272;SHT31;74614;50.032;19.566;2023-12-07T08:58:24;11.27;36.33
84272;SHT31;74614;50.032;19.566;2023-12-07T09:00:28;11.32;36.08
84272;SHT31;74614;50.032;19.566;2023-12-07T09:02:25;11.29;35.99
84272;SHT31;74614;50.032;19.566;2023-12-07T09:04:23;11.39;36.03
84272;SHT31;74614;50.032;19.566;2023-12-07T09:06:25;11.32;36.19
84272;SHT31;74614;50.032;19.566;2023-12-07T09:08:23;11.46;36.04
84272;SHT31;74614;50.032;19.566;2023-12-07T09:10:23;11.51;36.07
84272;SHT31;74614;50.032;19.566;2023-12-07T09:12:25;11.65;35.88
84272;SHT31;74614;50.032;19.566;2023-12-07T09:14:22;11.58;35.75
84272;SHT31;74614;50.032;19.566;2023-12-07T09:16:23;11.42;35.90
84272;SHT31;74614;50.032;19.566;2023-12-07T09:18:21;11.55;35.93
84272;SHT31;74614;50.032;19.566;2023-12-07T09:20:23;11.55;35.99
84272;SHT31;74614;50.032;19.566;2023-12-07T09:22:22;11.52;35.92
84272;SHT31;74614;50.032;19.566;2023-12-07T09:24:26;11.39;36.31
84272;SHT31;74614;50.032;19.566;2023-12-07T09:26:22;11.38;36.13
84272;SHT31;74614;50.032;19.566;2023-12-07T09:28:23;11.32;36.56
84272;SHT31;74614;50.032;19.566;2023-12-07T09:30:25;11.37;36.33
84272;SHT31;74614;50.032;19.566;2023-12-07T09:32:23;11.21;36.60
84272;SHT31;74614;50.032;19.566;2023-12-07T09:34:23;11.00;36.93
84272;SHT31;74614;50.032;19.566;2023-12-07T09:36:26;10.93;37.20
84272;SHT31;74614;50.032;19.566;2023-12-07T09:38:27;10.96;37.56
84272;SHT31;74614;50.032;19.566;2023-12-07T09:40:24;11.00;37.39
84272;SHT31;74614;50.032;19.566;2023-12-07T09:42:27;10.99;37.39
84272;SHT31;74614;50.032;19.566;2023-12-07T09:44:23;11.13;37.23
84272;SHT31;74614;50.032;19.566;2023-12-07T09:46:22;11.25;37.22
84272;SHT31;74614;50.032;19.566;2023-12-07T09:48:24;11.38;36.82
84272;SHT31;74614;50.032;19.566;2023-12-07T09:50:26;11.42;36.69
84272;SHT31;74614;50.032;19.566;2023-12-07T09:52:24;11.51;36.48
84272;SHT31;74614;50.032;19.566;2023-12-07T09:54:25;11.66;37.24
84272;SHT31;74614;50.032;19.566;2023-12-07T09:56:24;11.71;36.16
84272;SHT31;74614;50.032;19.566;2023-12-07T09:58:25;11.54;36.38
84272;SHT31;74614;50.032;19.566;2023-12-07T10:00:24;11.54;36.60
84272;SHT31;74614;50.032;19.566;2023-12-07T10:02:25;11.51;36.72
84272;SHT31;74614;50.032;19.566;2023-12-07T10:04:29;11.39;36.52
84272;SHT31;74614;50.032;19.566;2023-12-07T10:06:22;11.46;36.69
84272;SHT31;74614;50.032;19.566;2023-12-07T10:08:28;11.37;36.84
84272;SHT31;74614;50.032;19.566;2023-12-07T10:10:24;11.42;36.53
84272;SHT31;74614;50.032;19.566;2023-12-07T10:12:24;11.46;36.91
84272;SHT31;74614;50.032;19.566;2023-12-07T10:14:23;11.28;36.94
84272;SHT31;74614;50.032;19.566;2023-12-07T10:16:25;11.39;36.82
84272;SHT31;74614;50.032;19.566;2023-12-07T10:18:24;11.45;37.06
84272;SHT31;74614;50.032;19.566;2023-12-07T10:20:28;11.35;37.10
84272;SHT31;74614;50.032;19.566;2023-12-07T10:22:23;11.34;36.94
84272;SHT31;74614;50.032;19.566;2023-12-07T10:24:25;11.25;37.14
84272;SHT31;74614;50.032;19.566;2023-12-07T10:27:00;11.28;37.17
84272;SHT31;74614;50.032;19.566;2023-12-07T10:29:23;11.38;37.10
84272;SHT31;74614;50.032;19.566;2023-12-07T10:31:21;11.37;37.05
84272;SHT31;74614;50.032;19.566;2023-12-07T10:33:25;11.25;37.13
84272;SHT31;74614;50.032;19.566;2023-12-07T10:35:29;11.21;37.40
84272;SHT31;74614;50.032;19.566;2023-12-07T10:37:21;11.28;37.56
84272;SHT31;74614;50.032;19.566;2023-12-07T10:39:23;11.39;37.46
84272;SHT31;74614;50.032;19.566;2023-12-07T10:41:24;11.34;37.20
84272;SHT31;74614;50.032;19.566;2023-12-07T10:43:26;11.44;37.22
84272;SHT31;74614;50.032;19.566;2023-12-07T10:45:28;11.58;36.96
84272;SHT31;74614;50.032;19.566;2023-12-07T10:47:26;11.48;36.92
84272;SHT31;74614;50.032;19.566;2023-12-07T10:49:27;11.51;37.02
84272;SHT31;74614;50.032;19.566;2023-12-07T10:51:31;11.45;36.93
84272;SHT31;74614;50.032;19.566;2023-12-07T10:53:32;11.62;36.98
84272;SHT31;74614;50.032;19.566;2023-12-07T10:55:28;11.72;36.35
84272;SHT31;74614;50.032;19.566;2023-12-07T10:57:22;11.65;36.77
84272;SHT31;74614;50.032;19.566;2023-12-07T10:59:32;11.62;36.79
84272;SHT31;74614;50.032;19.566;2023-12-07T11:01:24;11.61;36.81
84272;SHT31;74614;50.032;19.566;2023-12-07T11:03:24;11.58;37.11
84272;SHT31;74614;50.032;19.566;2023-12-07T11:05:25;11.71;36.83
84272;SHT31;74614;50.032;19.566;2023-12-07T11:07:29;11.69;36.55
84272;SHT31;74614;50.032;19.566;2023-12-07T11:09:30;11.68;36.54
84272;SHT31;74614;50.032;19.566;2023-12-07T11:11:31;11.72;36.63
84272;SHT31;74614;50.032;19.566;2023-12-07T11:13:29;11.76;37.90
84272;SHT31;74614;50.032;19.566;2023-12-07T11:15:24;11.73;36.87
84272;SHT31;74614;50.032;19.566;2023-12-07T11:17:25;11.72;36.98
84272;SHT31;74614;50.032;19.566;2023-12-07T11:19:44;11.75;36.85
84272;SHT31;74614;50.032;19.566;2023-12-07T11:22:23;11.66;36.82
84272;SHT31;74614;50.032;19.566;2023-12-07T11:24:23;11.65;36.88
84272;SHT31;74614;50.032;19.566;2023-12-07T11:26:23;11.65;37.11
84272;SHT31;74614;50.032;19.566;2023-12-07T11:28:35;11.68;36.83
84272;SHT31;74614;50.032;19.566;2023-12-07T11:31:23;11.66;37.20
84272;SHT31;74614;50.032;19.566;2023-12-07T11:33:21;11.69;36.97
84272;SHT31;74614;50.032;19.566;2023-12-07T11:35:23;11.65;36.73
84272;SHT31;74614;50.032;19.566;2023-12-07T11:37:22;11.66;36.98
84272;SHT31;74614;50.032;19.566;2023-12-07T11:39:30;11.59;37.13
84272;SHT31;74614;50.032;19.566;2023-12-07T11:41:23;11.46;37.27
84272;SHT31;74614;50.032;19.566;2023-12-07T11:43:37;11.46;37.20
84272;SHT31;74614;50.032;19.566;2023-12-07T11:46:20;11.29;37.60
84272;SHT31;74614;50.032;19.566;2023-12-07T11:48:22;11.25;37.75
84272;SHT31;74614;50.032;19.566;2023-12-07T11:50:21;11.21;38.01
84272;SHT31;74614;50.032;19.566;2023-12-07T11:52:22;11.10;38.10
84272;SHT31;74614;50.032;19.566;2023-12-07T11:54:20;11.04;38.18
84272;SHT31;74614;50.032;19.566;2023-12-07T11:56:22;11.18;38.15
84272;SHT31;74614;50.032;19.566;2023-12-07T11:58:21;11.39;37.90
84272;SHT31;74614;50.032;19.566;2023-12-07T12:00:27;11.41;37.47
84272;SHT31;74614;50.032;19.566;2023-12-07T12:02:20;11.41;37.50
84272;SHT31;74614;50.032;19.566;2023-12-07T12:04:23;11.44;37.63
84272;SHT31;74614;50.032;19.566;2023-12-07T12:06:24;11.51;37.85
84272;SHT31;74614;50.032;19.566;2023-12-07T12:08:23;11.58;37.37
84272;SHT31;74614;50.032;19.566;2023-12-07T12:10:21;11.54;37.23
84272;SHT31;74614;50.032;19.566;2023-12-07T12:12:27;11.55;37.50
84272;SHT31;74614;50.032;19.566;2023-12-07T12:14:20;11.45;37.65
84272;SHT31;74614;50.032;19.566;2023-12-07T12:16:24;11.52;37.48
84272;SHT31;74614;50.032;19.566;2023-12-07T12:18:21;11.52;37.35
84272;SHT31;74614;50.032;19.566;2023-12-07T12:20:21;11.58;37.05
84272;SHT31;74614;50.032;19.566;2023-12-07T12:22:22;11.54;37.37
84272;SHT31;74614;50.032;19.566;2023-12-07T12:24:22;11.46;37.44
84272;SHT31;74614;50.032;19.566;2023-12-07T12:26:21;11.44;37.42
84272;SHT31;74614;50.032;19.566;2023-12-07T12:28:21;11.45;37.44
84272;SHT31;74614;50.032;19.566;2023-12-07T12:30:21;11.46;37.45
84272;SHT31;74614;50.032;19.566;2023-12-07T12:32:23;11.27;37.59
84272;SHT31;74614;50.032;19.566;2023-12-07T12:34:21;11.18;38.08